createdAt,value
2019-01-30T00:01:27.923Z,73.43
2019-01-30T00:03:58.325Z,73.65
2019-01-30T00:06:28.548Z,73.51
2019-01-30T00:08:58.795Z,73.45
2019-01-30T00:11:29.007Z,73.38
2019-01-30T00:14:00.173Z,73.37
2019-01-30T00:16:30.651Z,73.28
2019-01-30T00:19:01.252Z,73.17
2019-01-30T00:21:31.533Z,73.06
2019-01-30T00:24:01.763Z,73.03
2019-01-30T00:26:31.982Z,73.45
2019-01-30T00:29:02.227Z,73.52
2019-01-30T00:31:32.514Z,73.60
2019-01-30T00:34:02.749Z,73.77
2019-01-30T00:36:33.025Z,73.69
2019-01-30T00:39:04.899Z,73.69
2019-01-30T00:41:36.709Z,73.75
2019-01-30T00:44:06.934Z,73.68
2019-01-30T00:46:37.135Z,73.76
2019-01-30T00:49:07.366Z,73.71
2019-01-30T00:51:37.579Z,73.96
2019-01-30T00:54:07.826Z,73.69
2019-01-30T00:56:38.010Z,73.73
2019-01-30T00:59:08.232Z,73.53
2019-01-30T01:01:38.444Z,73.53
2019-01-30T01:04:08.664Z,73.43
2019-01-30T01:06:38.871Z,73.19
2019-01-30T01:09:10.372Z,73.28
2019-01-30T01:11:40.577Z,73.49
2019-01-30T01:14:11.640Z,73.58
2019-01-30T01:16:43.115Z,73.48
2019-01-30T01:19:13.374Z,73.63
2019-01-30T01:21:43.848Z,73.63
2019-01-30T01:24:14.075Z,73.63
2019-01-30T01:26:44.284Z,73.50
2019-01-30T01:29:14.509Z,73.35
2019-01-30T01:31:44.711Z,73.44
2019-01-30T01:34:14.935Z,73.44
2019-01-30T01:36:45.157Z,73.32
2019-01-30T01:39:15.382Z,73.55
2019-01-30T01:41:45.587Z,73.49
2019-01-30T01:44:15.817Z,73.53
2019-01-30T01:46:46.024Z,73.51
2019-01-30T01:49:17.496Z,73.43
2019-01-30T01:51:47.697Z,73.35
2019-01-30T01:54:17.921Z,73.33
2019-01-30T01:56:48.128Z,73.23
2019-01-30T01:59:18.360Z,73.46
2019-01-30T02:01:48.568Z,73.47
2019-01-30T02:04:18.803Z,73.47
2019-01-30T02:06:49.010Z,73.18
2019-01-30T02:09:19.236Z,73.23
2019-01-30T02:11:49.439Z,73.11
2019-01-30T02:14:20.659Z,73.31
2019-01-30T02:16:50.869Z,73.46
2019-01-30T02:19:21.091Z,73.49
2019-01-30T02:21:51.301Z,73.67
2019-01-30T02:24:21.531Z,73.77
2019-01-30T02:26:51.844Z,73.78
2019-01-30T02:29:22.042Z,73.62
2019-01-30T02:31:52.249Z,73.71
2019-01-30T02:34:22.473Z,73.92
2019-01-30T02:36:58.487Z,74.33
2019-01-30T02:39:28.722Z,74.38
2019-01-30T02:41:58.915Z,74.32
2019-01-30T02:44:29.169Z,74.04
2019-01-30T02:46:59.366Z,74.04
2019-01-30T02:49:29.590Z,73.93
2019-01-30T02:51:59.800Z,74.74
2019-01-30T02:54:30.027Z,74.74
2019-01-30T02:57:01.795Z,74.94
2019-01-30T02:59:32.026Z,74.70
2019-01-30T03:02:03.870Z,75.47
2019-01-30T03:04:34.098Z,75.42
2019-01-30T03:07:04.313Z,75.51
2019-01-30T03:09:34.546Z,74.58
2019-01-30T03:12:04.755Z,75.37
2019-01-30T03:14:35.850Z,75.37
2019-01-30T03:17:06.049Z,75.83
2019-01-30T03:19:36.285Z,75.50
2019-01-30T03:22:07.836Z,75.84
2019-01-30T03:24:38.080Z,76.08
2019-01-30T03:27:08.292Z,76.27
2019-01-30T03:29:38.523Z,76.68
2019-01-30T03:32:08.746Z,77.05
2019-01-30T03:34:38.965Z,75.83
2019-01-30T03:37:09.179Z,76.91
2019-01-30T03:39:39.414Z,77.15
2019-01-30T03:42:09.628Z,77.01
2019-01-30T03:44:39.861Z,77.11
2019-01-30T03:47:10.070Z,76.93
2019-01-30T03:49:40.310Z,75.62
2019-01-30T03:52:10.525Z,76.91
2019-01-30T03:54:40.760Z,76.72
2019-01-30T03:57:10.982Z,76.56
2019-01-30T03:59:41.220Z,75.96
2019-01-30T04:02:11.429Z,75.94
2019-01-30T04:04:41.658Z,75.69
2019-01-30T04:07:11.872Z,75.45
2019-01-30T04:09:42.104Z,75.68
2019-01-30T04:12:12.319Z,75.66
2019-01-30T04:14:43.629Z,76.01
2019-01-30T04:17:13.851Z,76.14
2019-01-30T04:19:44.090Z,76.34
2019-01-30T04:22:15.559Z,76.41
2019-01-30T04:24:50.470Z,76.49
2019-01-30T04:27:21.471Z,76.49
2019-01-30T04:29:51.733Z,76.25
2019-01-30T04:32:21.942Z,76.27
2019-01-30T04:34:52.172Z,76.52
2019-01-30T04:37:22.379Z,76.52
2019-01-30T04:39:52.618Z,76.12
2019-01-30T04:42:22.828Z,76.11
2019-01-30T04:44:53.063Z,76.22
2019-01-30T04:47:23.271Z,76.07
2019-01-30T04:49:53.503Z,75.91
2019-01-30T04:52:23.721Z,75.93
2019-01-30T04:54:53.953Z,75.75
2019-01-30T04:57:24.168Z,75.65
2019-01-30T04:59:54.395Z,75.58
2019-01-30T05:02:24.608Z,75.61
2019-01-30T05:04:54.845Z,75.67
2019-01-30T05:07:25.060Z,76.03
2019-01-30T05:09:55.296Z,75.71
2019-01-30T05:12:26.777Z,75.39
2019-01-30T05:15:00.705Z,75.25
2019-01-30T05:17:31.178Z,75.17
2019-01-30T05:20:01.435Z,75.04
2019-01-30T05:22:32.865Z,74.89
2019-01-30T05:25:03.082Z,74.67
2019-01-30T05:27:34.530Z,74.54
2019-01-30T05:30:16.915Z,74.25
2019-01-30T05:32:47.245Z,74.27
2019-01-30T05:35:17.490Z,74.37
2019-01-30T05:37:51.291Z,74.40
2019-01-30T05:40:22.638Z,74.75
2019-01-30T05:42:53.044Z,74.63
2019-01-30T05:45:23.281Z,74.59
2019-01-30T05:47:53.491Z,74.55
2019-01-30T05:50:23.803Z,74.46
2019-01-30T05:52:54.011Z,74.48
2019-01-30T05:55:24.235Z,74.54
2019-01-30T05:57:54.456Z,74.41
2019-01-30T06:00:34.419Z,74.11
2019-01-30T06:03:12.830Z,73.87
2019-01-30T06:05:46.120Z,73.56
2019-01-30T06:08:16.321Z,73.41
2019-01-30T06:10:46.719Z,73.32
2019-01-30T06:13:18.842Z,73.02
2019-01-30T06:15:51.278Z,73.13
2019-01-30T06:18:21.660Z,73.48
2019-01-30T06:20:51.905Z,73.29
2019-01-30T06:23:24.158Z,73.16
2019-01-30T06:25:54.396Z,73.46
2019-01-30T06:28:28.637Z,73.34
2019-01-30T06:30:56.530Z,73.14
2019-01-30T06:33:26.738Z,73.09
2019-01-30T06:35:56.970Z,73.15
2019-01-30T06:38:27.178Z,73.06
2019-01-30T06:40:57.411Z,73.06
2019-01-30T06:43:27.617Z,72.81
2019-01-30T06:45:57.847Z,72.81
2019-01-30T06:48:28.063Z,72.45
2019-01-30T06:50:58.296Z,72.43
2019-01-30T06:53:28.507Z,72.07
2019-01-30T06:55:58.729Z,72.05
2019-01-30T06:58:28.940Z,72.29
2019-01-30T07:01:00.242Z,72.18
2019-01-30T07:03:30.457Z,71.76
2019-01-30T07:06:00.686Z,71.53
2019-01-30T07:08:30.901Z,71.34
2019-01-30T07:11:10.689Z,70.60
2019-01-30T07:13:39.202Z,70.17
2019-01-30T07:16:10.200Z,70.27
2019-01-30T07:18:41.141Z,70.25
2019-01-30T07:21:11.374Z,69.75
2019-01-30T07:23:41.603Z,69.37
2019-01-30T07:26:12.022Z,69.36
2019-01-30T07:28:42.386Z,69.11
2019-01-30T07:31:12.676Z,69.08
2019-01-30T07:33:42.920Z,68.82
2019-01-30T07:36:13.215Z,67.62
2019-01-30T07:38:43.664Z,67.62
2019-01-30T07:41:15.068Z,67.89
2019-01-30T07:43:45.622Z,66.18
2019-01-30T07:46:17.495Z,65.95
2019-01-30T07:48:48.697Z,65.95
2019-01-30T07:51:18.945Z,65.05
2019-01-30T07:53:49.168Z,65.03
2019-01-30T07:56:19.471Z,64.64
2019-01-30T07:58:49.678Z,65.69
2019-01-30T08:01:22.163Z,64.37
2019-01-30T08:03:52.479Z,63.51
2019-01-30T08:06:22.826Z,62.98
2019-01-30T08:08:53.676Z,63.62
2019-01-30T08:11:24.131Z,62.78
2019-01-30T08:13:55.555Z,62.50
2019-01-30T08:16:25.798Z,62.39
2019-01-30T08:18:56.019Z,61.63
2019-01-30T08:21:28.001Z,63.08
2019-01-30T08:23:58.829Z,62.73
2019-01-30T08:26:29.220Z,60.85
2019-01-30T08:29:00.992Z,61.00
2019-01-30T08:31:31.434Z,60.00
2019-01-30T08:34:01.647Z,60.05
2019-01-30T08:36:31.911Z,59.36
2019-01-30T08:39:02.139Z,58.22
2019-01-30T08:41:34.211Z,58.78
2019-01-30T08:44:04.432Z,58.52
2019-01-30T08:46:34.671Z,58.49
2019-01-30T08:49:06.028Z,57.51
2019-01-30T08:51:38.131Z,56.79
2019-01-30T08:54:08.345Z,57.39
2019-01-30T08:56:39.193Z,57.19
2019-01-30T08:59:10.868Z,56.89
2019-01-30T09:01:41.159Z,55.87
2019-01-30T09:04:11.498Z,55.26
2019-01-30T09:06:41.908Z,55.68
2019-01-30T09:09:12.413Z,55.63
2019-01-30T09:11:42.682Z,55.48
2019-01-30T09:14:14.858Z,54.44
2019-01-30T09:16:46.811Z,54.79
2019-01-30T09:19:17.154Z,54.57
2019-01-30T09:21:47.407Z,54.71
2019-01-30T09:24:17.742Z,54.43
2019-01-30T09:26:49.508Z,54.15
2019-01-30T09:29:19.730Z,53.72
2019-01-30T09:31:49.962Z,54.55
2019-01-30T09:34:20.261Z,52.62
2019-01-30T09:36:50.655Z,53.14
2019-01-30T09:39:23.491Z,52.43
2019-01-30T09:41:53.929Z,52.35
2019-01-30T09:44:24.187Z,52.44
2019-01-30T09:46:54.404Z,52.03
2019-01-30T09:49:27.534Z,51.52
2019-01-30T09:51:57.881Z,51.75
2019-01-30T09:54:29.680Z,51.15
2019-01-30T09:56:59.924Z,50.90
2019-01-30T09:59:31.032Z,50.16
2019-01-30T10:02:01.336Z,50.51
2019-01-30T10:04:31.555Z,48.66
2019-01-30T10:07:01.795Z,49.38
2019-01-30T10:09:32.012Z,49.40
2019-01-30T10:12:02.228Z,49.20
2019-01-30T10:14:32.439Z,49.70
2019-01-30T10:17:03.814Z,49.10
2019-01-30T10:19:34.102Z,49.64
2019-01-30T10:22:04.512Z,48.78
2019-01-30T10:24:34.721Z,48.68
2019-01-30T10:27:04.960Z,48.88
2019-01-30T10:29:36.119Z,49.36
2019-01-30T10:32:06.359Z,48.40
2019-01-30T10:34:36.563Z,48.56
2019-01-30T10:37:06.819Z,48.72
2019-01-30T10:39:37.017Z,48.95
2019-01-30T10:42:07.245Z,47.99
2019-01-30T10:44:37.462Z,48.42
2019-01-30T10:47:07.693Z,48.19
2019-01-30T10:49:37.902Z,48.80
2019-01-30T10:52:08.145Z,48.31
2019-01-30T10:54:38.368Z,49.01
2019-01-30T10:57:08.812Z,49.23
2019-01-30T10:59:39.029Z,48.94
2019-01-30T11:02:09.250Z,49.31
2019-01-30T11:04:39.475Z,48.93
2019-01-30T11:07:09.701Z,49.91
2019-01-30T11:09:39.937Z,49.97
2019-01-30T11:12:10.164Z,49.89
2019-01-30T11:14:41.077Z,50.59
2019-01-30T11:17:12.348Z,50.77
2019-01-30T11:19:42.564Z,50.54
2019-01-30T11:22:12.805Z,49.66
2019-01-30T11:24:43.022Z,50.69
2019-01-30T11:27:13.292Z,50.88
2019-01-30T11:29:43.566Z,50.44
2019-01-30T11:32:13.790Z,51.18
2019-01-30T11:34:43.989Z,49.75
2019-01-30T11:37:14.223Z,49.79
2019-01-30T11:39:44.421Z,49.88
2019-01-30T11:42:15.721Z,50.86
2019-01-30T11:44:46.005Z,50.94
2019-01-30T11:47:16.236Z,50.53
2019-01-30T11:49:46.432Z,50.19
2019-01-30T11:52:16.735Z,49.09
2019-01-30T11:54:46.944Z,48.95
2019-01-30T11:57:17.172Z,49.01
2019-01-30T11:59:47.380Z,49.76
2019-01-30T12:02:17.613Z,49.58
2019-01-30T12:04:47.828Z,49.40
2019-01-30T12:07:18.051Z,49.92
2019-01-30T12:09:48.258Z,50.04
2019-01-30T12:12:18.491Z,50.02
2019-01-30T12:14:48.696Z,49.78
2019-01-30T12:17:19.703Z,50.33
2019-01-30T12:19:49.909Z,50.14
2019-01-30T12:22:20.159Z,49.47
2019-01-30T12:24:50.374Z,49.86
2019-01-30T12:27:20.867Z,50.04
2019-01-30T12:29:52.173Z,49.63
2019-01-30T12:32:22.447Z,50.05
2019-01-30T12:34:52.641Z,49.43
2019-01-30T12:37:23.946Z,49.44
2019-01-30T12:39:54.149Z,49.07
2019-01-30T12:42:24.379Z,49.88
2019-01-30T12:44:54.586Z,49.35
2019-01-30T12:47:24.810Z,49.46
2019-01-30T12:49:55.016Z,50.11
2019-01-30T12:52:25.295Z,49.86
2019-01-30T12:54:56.634Z,49.53
2019-01-30T12:57:26.857Z,50.00
2019-01-30T12:59:57.128Z,50.03
2019-01-30T13:02:27.358Z,50.49
2019-01-30T13:04:57.561Z,50.53
2019-01-30T13:07:27.787Z,50.45
2019-01-30T13:10:00.209Z,50.25
2019-01-30T13:12:30.449Z,50.57
2019-01-30T13:15:00.679Z,51.50
2019-01-30T13:17:31.770Z,51.57
2019-01-30T13:20:01.995Z,51.38
2019-01-30T13:22:33.500Z,51.61
2019-01-30T13:25:04.687Z,52.20
2019-01-30T13:27:34.942Z,51.90
2019-01-30T13:30:17.434Z,52.04
2019-01-30T13:32:48.837Z,52.46
2019-01-30T13:35:19.333Z,52.01
2019-01-30T13:37:50.484Z,51.79
2019-01-30T13:40:23.544Z,52.59
2019-01-30T13:42:54.932Z,53.02
2019-01-30T13:45:25.213Z,52.57
2019-01-30T13:47:55.456Z,52.09
2019-01-30T13:50:27.233Z,52.42
2019-01-30T13:52:57.453Z,52.44
2019-01-30T13:55:27.675Z,52.77
2019-01-30T13:57:58.098Z,53.06
2019-01-30T14:00:30.861Z,52.98
2019-01-30T14:03:01.092Z,53.19
2019-01-30T14:05:31.952Z,53.64
2019-01-30T14:08:02.204Z,53.58
2019-01-30T14:10:32.494Z,53.03
2019-01-30T14:13:02.696Z,53.91
2019-01-30T14:15:33.476Z,53.96
2019-01-30T14:18:06.378Z,54.33
2019-01-30T14:20:36.564Z,54.52
2019-01-30T14:23:06.774Z,54.67
2019-01-30T14:25:37.041Z,54.93
2019-01-30T14:28:08.786Z,55.22
2019-01-30T14:30:41.742Z,55.56
2019-01-30T14:33:11.971Z,55.70
2019-01-30T14:35:42.194Z,55.97
2019-01-30T14:41:16.139Z,56.62
2019-01-30T14:43:46.693Z,56.82
2019-01-30T14:46:17.251Z,56.82
2019-01-30T14:48:48.662Z,56.88
2019-01-30T14:51:18.896Z,57.00
2019-01-30T14:53:49.176Z,57.71
2019-01-30T14:56:19.638Z,57.83
2019-01-30T14:58:51.050Z,58.19
2019-01-30T15:01:21.356Z,57.95
2019-01-30T15:03:51.600Z,57.95
2019-01-30T15:06:21.883Z,58.42
2019-01-30T15:08:52.649Z,58.51
2019-01-30T15:11:22.966Z,59.01
2019-01-30T15:13:53.204Z,59.65
2019-01-30T15:16:23.472Z,59.65
2019-01-30T15:18:53.921Z,60.66
2019-01-30T15:21:24.529Z,60.66
2019-01-30T15:23:54.741Z,61.08
2019-01-30T15:26:25.036Z,61.46
2019-01-30T15:28:55.268Z,62.12
2019-01-30T15:31:26.719Z,62.59
2019-01-30T15:33:56.968Z,63.29
2019-01-30T15:36:27.275Z,63.51
2019-01-30T15:38:57.681Z,63.85
2019-01-30T15:41:29.248Z,64.07
2019-01-30T15:43:59.489Z,64.38
2019-01-30T15:46:29.930Z,64.52
2019-01-30T15:49:00.469Z,64.94
2019-01-30T15:51:32.196Z,65.03
2019-01-30T15:54:02.443Z,65.29
2019-01-30T15:56:32.743Z,65.34
2019-01-30T15:59:03.166Z,65.58
2019-01-30T16:01:33.441Z,65.61
2019-01-30T16:04:06.038Z,66.05
2019-01-30T16:06:37.844Z,66.08
2019-01-30T16:09:07.652Z,66.42
2019-01-30T16:11:38.588Z,66.38
2019-01-30T16:14:09.211Z,66.41
2019-01-30T16:16:39.651Z,66.63
2019-01-30T16:19:10.781Z,66.72
2019-01-30T16:21:41.336Z,66.79
2019-01-30T16:24:11.605Z,66.92
2019-01-30T16:26:42.118Z,67.15
2019-01-30T16:29:12.381Z,67.10
2019-01-30T16:31:42.673Z,67.56
2019-01-30T16:34:13.026Z,67.51
2019-01-30T16:36:43.306Z,67.67
2019-01-30T16:39:13.569Z,68.05
2019-01-30T16:41:44.026Z,68.14
2019-01-30T16:44:14.292Z,68.54
2019-01-30T16:46:46.013Z,68.59
2019-01-30T16:49:16.552Z,68.65
2019-01-30T16:51:46.839Z,68.75
2019-01-30T16:54:17.412Z,68.77
2019-01-30T16:56:47.700Z,68.86
2019-01-30T16:59:19.050Z,69.00
2019-01-30T17:01:50.408Z,69.22
2019-01-30T17:04:20.686Z,68.94
2019-01-30T17:06:53.867Z,69.10
2019-01-30T17:09:25.584Z,69.14
2019-01-30T17:11:57.769Z,69.30
2019-01-30T17:14:28.251Z,69.44
2019-01-30T17:16:59.724Z,69.64
2019-01-30T17:19:33.158Z,69.77
2019-01-30T17:22:03.731Z,69.93
2019-01-30T17:24:35.611Z,70.00
2019-01-30T17:27:08.192Z,70.09
2019-01-30T17:29:38.633Z,70.30
2019-01-30T17:32:08.903Z,70.24
2019-01-30T17:34:39.166Z,70.52
2019-01-30T17:37:09.802Z,70.38
2019-01-30T17:39:41.675Z,70.75
2019-01-30T17:42:12.228Z,70.58
2019-01-30T17:44:42.488Z,70.85
2019-01-30T17:47:12.776Z,71.18
2019-01-30T17:49:43.043Z,71.44
2019-01-30T17:52:16.359Z,71.29
2019-01-30T17:54:47.004Z,71.30
2019-01-30T17:57:17.574Z,71.27
2019-01-30T17:59:48.863Z,71.47
2019-01-30T18:02:19.535Z,71.51
2019-01-30T18:04:49.799Z,71.62
2019-01-30T18:07:20.065Z,71.72
2019-01-30T18:09:50.693Z,71.58
2019-01-30T18:12:20.968Z,71.59
2019-01-30T18:14:55.606Z,71.50
2019-01-30T18:17:29.621Z,71.56
2019-01-30T18:20:04.153Z,71.62
2019-01-30T18:22:34.497Z,71.74
2019-01-30T18:25:11.929Z,71.84
2019-01-30T18:27:44.287Z,71.97
2019-01-30T18:30:23.001Z,72.06
2019-01-30T18:32:57.921Z,72.16
2019-01-30T18:35:28.666Z,72.18
2019-01-30T18:37:59.084Z,72.29
2019-01-30T18:40:32.830Z,72.49
2019-01-30T18:43:03.368Z,72.51
2019-01-30T18:45:33.760Z,72.97
2019-01-30T18:48:04.706Z,73.17
2019-01-30T18:50:35.140Z,73.11
2019-01-30T18:53:05.638Z,73.17
2019-01-30T18:55:35.991Z,73.49
2019-01-30T18:58:08.459Z,73.35
2019-01-30T19:00:46.396Z,73.46
2019-01-30T19:03:16.751Z,73.64
2019-01-30T19:05:50.359Z,73.50
2019-01-30T19:08:23.568Z,73.56
2019-01-30T19:10:54.265Z,73.68
2019-01-30T19:13:25.299Z,73.72
2019-01-30T19:15:55.953Z,73.65
2019-01-30T19:18:31.174Z,73.90
2019-01-30T19:21:02.655Z,74.09
2019-01-30T19:23:34.098Z,73.92
2019-01-30T19:26:08.958Z,74.18
2019-01-30T19:28:40.100Z,73.99
2019-01-30T19:31:10.633Z,73.91
2019-01-30T19:33:41.238Z,73.76
2019-01-30T19:36:11.668Z,73.59
2019-01-30T19:38:42.290Z,73.71
2019-01-30T19:41:13.098Z,73.91
2019-01-30T19:43:43.612Z,74.02
2019-01-30T19:46:15.910Z,73.97
2019-01-30T19:48:47.539Z,74.10
2019-01-30T19:51:17.931Z,74.33
2019-01-30T19:53:49.656Z,74.50
2019-01-30T19:56:21.122Z,74.55
2019-01-30T19:58:52.605Z,74.85
2019-01-30T20:01:23.095Z,74.94
2019-01-30T20:03:54.584Z,75.09
2019-01-30T20:06:32.065Z,75.15
2019-01-30T20:09:04.962Z,75.23
2019-01-30T20:11:37.081Z,75.22
2019-01-30T20:14:11.198Z,74.96
2019-01-30T20:16:43.758Z,75.43
2019-01-30T20:19:15.858Z,75.06
2019-01-30T20:21:47.132Z,75.23
2019-01-30T20:24:17.537Z,75.12
2019-01-30T20:26:48.982Z,75.40
2019-01-30T20:29:20.447Z,75.23
2019-01-30T20:31:53.426Z,75.44
2019-01-30T20:34:24.903Z,75.35
2019-01-30T20:36:55.168Z,75.46
2019-01-30T20:39:34.256Z,75.38
2019-01-30T20:42:04.858Z,75.64
2019-01-30T20:44:36.398Z,75.73
2019-01-30T20:47:09.657Z,75.75
2019-01-30T20:49:40.090Z,76.11
2019-01-30T20:52:11.019Z,75.73
2019-01-30T20:54:43.660Z,75.97
2019-01-30T20:57:18.489Z,75.73
2019-01-30T20:59:48.931Z,76.08
2019-01-30T21:02:20.714Z,76.30
2019-01-30T21:04:51.266Z,76.05
2019-01-30T21:07:22.014Z,75.89
2019-01-30T21:09:52.565Z,76.36
2019-01-30T21:12:24.374Z,76.53
2019-01-30T21:14:55.230Z,76.32
2019-01-30T21:17:26.427Z,76.06
2019-01-30T21:19:57.868Z,76.52
2019-01-30T21:22:28.927Z,76.62
2019-01-30T21:25:01.268Z,76.63
2019-01-30T21:27:32.950Z,76.67
2019-01-30T21:30:03.605Z,76.49
2019-01-30T21:32:34.347Z,76.85
2019-01-30T21:35:06.509Z,76.97
2019-01-30T21:37:48.366Z,77.31
2019-01-30T21:40:14.249Z,77.60
2019-01-30T21:42:46.496Z,77.32
2019-01-30T21:45:29.105Z,77.65
2019-01-30T21:48:02.225Z,77.45
2019-01-30T21:50:36.444Z,77.18
2019-01-30T21:53:06.902Z,77.31
2019-01-30T21:55:38.345Z,77.72
2019-01-30T21:58:09.849Z,77.38
2019-01-30T22:00:40.316Z,77.56
2019-01-30T22:03:11.789Z,77.33
2019-01-30T22:05:43.527Z,77.85
2019-01-30T22:08:15.179Z,77.99
2019-01-30T22:10:45.650Z,77.98
2019-01-30T22:13:16.050Z,77.94
2019-01-30T22:15:47.792Z,77.90
2019-01-30T22:18:19.299Z,78.17
2019-01-30T22:20:49.769Z,78.19
2019-01-30T22:23:20.949Z,78.56
2019-01-30T22:25:52.364Z,78.58
2019-01-30T22:28:23.843Z,77.94
2019-01-30T22:30:55.263Z,78.54
2019-01-30T22:33:26.746Z,78.38
2019-01-30T22:35:58.178Z,78.73
2019-01-30T22:38:29.630Z,78.74
2019-01-30T22:41:01.081Z,79.01
2019-01-30T22:43:32.532Z,78.95
2019-01-30T22:46:04.890Z,78.97
2019-01-30T22:48:35.508Z,79.49
2019-01-30T22:51:05.945Z,78.97
2019-01-30T22:53:37.425Z,79.16
2019-01-30T22:56:08.843Z,78.82
2019-01-30T22:58:40.320Z,78.62
2019-01-30T23:01:20.491Z,78.14
2019-01-30T23:03:56.337Z,78.60
2019-01-30T23:06:32.950Z,78.65
2019-01-30T23:09:21.728Z,78.40
2019-01-30T23:12:04.164Z,78.38
2019-01-30T23:14:37.993Z,78.38
2019-01-30T23:17:20.446Z,78.16
2019-01-30T23:19:54.174Z,78.07
2019-01-30T23:22:28.051Z,77.70
2019-01-30T23:25:29.617Z,77.79
2019-01-30T23:28:03.222Z,77.86
2019-01-30T23:30:51.710Z,77.95
2019-01-30T23:33:32.478Z,77.72
2019-01-30T23:36:15.154Z,77.50
2019-01-30T23:38:57.027Z,77.50
2019-01-30T23:41:50.182Z,77.12
2019-01-30T23:44:29.920Z,77.01
2019-01-30T23:47:36.732Z,76.58
2019-01-30T23:50:16.422Z,76.70
2019-01-30T23:53:01.451Z,76.43
2019-01-30T23:55:58.004Z,76.26
2019-01-30T23:58:49.816Z,76.20
